www.cux-wetter.de
Wetterdaten: Woche 23.02.09 - 01.03.09 (KW9)
Datum Zeit Temp. A. Feuchte A. Luftdruck Regen Wind Richtung Sonnenschein Solar Taupunkt Windchill Windben
23.02.2009 00:00 4,4 C 96 % 1011,4 hPa 0,0 l/m 30,0 km/h (5 Bft) NW 0,00 h 0 W/m 3,9 C -7,1 C 30,0 km/h (5 Bft)
23.02.2009 01:00 4,4 C 96 % 1010,5 hPa 0,6 l/m 28,3 km/h (5 Bft) NW 0,00 h 0 W/m 3,8 C -6,6 C 28,3 km/h (5 Bft)
23.02.2009 02:00 4,3 C 96 % 1010,5 hPa 0,0 l/m 31,7 km/h (5 Bft) NW 0,00 h 0 W/m 3,7 C -7,7 C 31,7 km/h (5 Bft)
23.02.2009 03:00 4,3 C 95 % 1010,5 hPa 0,0 l/m 32,3 km/h (5 Bft) NW 0,00 h 0 W/m 3,6 C -7,9 C 32,3 km/h (5 Bft)
23.02.2009 04:00 4,3 C 97 % 1009,7 hPa 0,3 l/m 30,4 km/h (5 Bft) NW 0,00 h 0 W/m 3,8 C -7,4 C 30,4 km/h (5 Bft)
23.02.2009 05:00 4,3 C 97 % 1009,5 hPa 0,0 l/m 31,2 km/h (5 Bft) NW 0,00 h 0 W/m 3,9 C -7,6 C 31,2 km/h (5 Bft)
23.02.2009 06:00 4,2 C 98 % 1009,5 hPa 0,3 l/m 27,6 km/h (5 Bft) NW 0,00 h 0 W/m 3,8 C -6,8 C 27,6 km/h (5 Bft)
23.02.2009 07:00 4,2 C 98 % 1009,5 hPa 0,0 l/m 30,1 km/h (5 Bft) NW 0,00 h 0 W/m 3,9 C -7,5 C 30,1 km/h (5 Bft)
23.02.2009 08:00 4,3 C 97 % 1009,8 hPa 0,0 l/m 28,4 km/h (5 Bft) N-NW 0,00 h 0 W/m 3,8 C -6,9 C 28,4 km/h (5 Bft)
23.02.2009 09:00 4,2 C 96 % 1010,5 hPa 0,0 l/m 26,0 km/h (4 Bft) N-NW 0,00 h 0 W/m 3,7 C -6,2 C 26,0 km/h (4 Bft)
23.02.2009 10:00 4,3 C 96 % 1010,5 hPa 0,0 l/m 24,3 km/h (4 Bft) N 0,00 h 0 W/m 3,7 C -5,6 C 24,3 km/h (4 Bft)
23.02.2009 11:00 4,5 C 95 % 1011,5 hPa 0,0 l/m 24,2 km/h (4 Bft) N 0,00 h 0 W/m 3,7 C -5,2 C 24,2 km/h (4 Bft)
23.02.2009 12:00 5,0 C 93 % 1011,5 hPa 0,0 l/m 27,1 km/h (5 Bft) N 0,00 h 0 W/m 3,9 C -5,6 C 27,1 km/h (5 Bft)
23.02.2009 13:00 5,0 C 92 % 1011,5 hPa 0,0 l/m 30,7 km/h (5 Bft) N 0,00 h 0 W/m 3,8 C -6,5 C 30,7 km/h (5 Bft)
23.02.2009 14:00 4,8 C 92 % 1012,5 hPa 0,0 l/m 31,8 km/h (5 Bft) N 0,00 h 0 W/m 3,6 C -7,0 C 31,8 km/h (5 Bft)
23.02.2009 15:00 4,7 C 92 % 1012,5 hPa 0,0 l/m 33,0 km/h (5 Bft) N 0,00 h 0 W/m 3,5 C -7,6 C 33,0 km/h (5 Bft)
23.02.2009 16:00 4,2 C 92 % 1012,5 hPa 0,0 l/m 32,9 km/h (5 Bft) N 0,00 h 0 W/m 3,0 C -8,2 C 32,9 km/h (5 Bft)
23.02.2009 17:00 3,7 C 93 % 1013,4 hPa 0,0 l/m 28,8 km/h (5 Bft) N 0,00 h 0 W/m 2,7 C -7,9 C 28,8 km/h (5 Bft)
23.02.2009 18:00 3,3 C 95 % 1014,1 hPa 0,0 l/m 27,1 km/h (5 Bft) N 0,00 h 0 W/m 2,5 C -7,9 C 27,1 km/h (5 Bft)
23.02.2009 19:00 3,0 C 95 % 1015,2 hPa 0,0 l/m 22,4 km/h (4 Bft) N-NO 0,00 h 0 W/m 2,3 C -6,6 C 22,4 km/h (4 Bft)
23.02.2009 20:00 2,8 C 96 % 1015,5 hPa 0,0 l/m 17,2 km/h (3 Bft) N 0,00 h 0 W/m 2,2 C -4,5 C 17,2 km/h (3 Bft)
23.02.2009 21:00 2,7 C 96 % 1016,3 hPa 0,0 l/m 13,9 km/h (3 Bft) N-NO 0,00 h 0 W/m 2,1 C -3,0 C 13,9 km/h (3 Bft)
23.02.2009 22:00 2,8 C 96 % 1017,0 hPa 0,0 l/m 4,3 km/h (1 Bft) N-NO 0,00 h 0 W/m 2,2 C 2,2 C 4,3 km/h (1 Bft)
23.02.2009 23:00 2,2 C 96 % 1017,5 hPa 0,0 l/m 0,8 km/h (0 Bft) N 0,00 h 0 W/m 1,6 C 2,2 C 0,8 km/h (0 Bft)
24.02.2009 00:00 1,3 C 96 % 1018,3 hPa 0,0 l/m 1,5 km/h (1 Bft) NO 0,00 h 0 W/m 0,7 C 1,2 C 1,5 km/h (1 Bft)
24.02.2009 01:00 1,2 C 96 % 1018,7 hPa 0,0 l/m 1,9 km/h (1 Bft) NO 0,00 h 0 W/m 0,7 C 1,1 C 1,9 km/h (1 Bft)
24.02.2009 02:00 0,2 C 96 % 1019,5 hPa 0,0 l/m 0,0 km/h (0 Bft) N 0,00 h 0 W/m -0,3 C 0,2 C 0,0 km/h (0 Bft)
24.02.2009 03:00 -0,1 C 96 % 1019,8 hPa 0,0 l/m 0,2 km/h (0 Bft) NO 0,00 h 0 W/m -0,7 C -0,1 C 0,2 km/h (0 Bft)
24.02.2009 04:00 -0,5 C 97 % 1020,5 hPa 0,0 l/m 0,0 km/h (0 Bft) N 0,00 h 0 W/m -1,0 C -0,5 C 0,0 km/h (0 Bft)
24.02.2009 05:00 -0,8 C 97 % 1020,6 hPa 0,0 l/m 0,0 km/h (0 Bft) N 0,00 h 0 W/m -1,3 C -0,8 C 0,0 km/h (0 Bft)
24.02.2009 06:00 -1,3 C 97 % 1021,5 hPa 0,0 l/m 0,0 km/h (0 Bft) N 0,00 h 0 W/m -1,7 C -1,3 C 0,0 km/h (0 Bft)
24.02.2009 07:00 -1,8 C 97 % 1022,0 hPa 0,0 l/m 0,0 km/h (0 Bft) N 0,00 h 0 W/m -2,2 C -1,8 C 0,0 km/h (0 Bft)
24.02.2009 08:00 -1,8 C 97 % 1022,5 hPa 0,0 l/m 0,0 km/h (0 Bft) N 0,00 h 0 W/m -2,2 C -1,8 C 0,0 km/h (0 Bft)
24.02.2009 09:00 -0,6 C 97 % 1023,4 hPa 0,0 l/m 0,0 km/h (0 Bft) N 0,00 h 0 W/m -0,9 C -0,6 C 0,0 km/h (0 Bft)
24.02.2009 10:00 1,8 C 98 % 1023,5 hPa 0,0 l/m 4,1 km/h (1 Bft) N 0,00 h 0 W/m 1,4 C 1,4 C 4,1 km/h (1 Bft)
24.02.2009 11:00 2,9 C 98 % 1024,2 hPa 0,0 l/m 7,1 km/h (2 Bft) NW 0,00 h 0 W/m 2,6 C 1,9 C 7,1 km/h (2 Bft)
24.02.2009 12:00 2,8 C 98 % 1024,5 hPa 0,0 l/m 9,8 km/h (2 Bft) NW 0,00 h 0 W/m 2,4 C -0,1 C 9,8 km/h (2 Bft)
24.02.2009 13:00 2,6 C 97 % 1024,5 hPa 0,0 l/m 8,5 km/h (2 Bft) W 0,00 h 0 W/m 2,2 C 0,7 C 8,5 km/h (2 Bft)
24.02.2009 14:00 2,9 C 97 % 1024,5 hPa 0,0 l/m 8,8 km/h (2 Bft) W-NW 0,00 h 0 W/m 2,5 C 0,8 C 8,8 km/h (2 Bft)
24.02.2009 15:00 3,2 C 97 % 1024,5 hPa 0,0 l/m 11,8 km/h (2 Bft) NW 0,00 h 0 W/m 2,7 C -1,1 C 11,8 km/h (2 Bft)
24.02.2009 16:00 3,5 C 96 % 1024,5 hPa 0,0 l/m 11,6 km/h (2 Bft) W 0,00 h 0 W/m 2,9 C -0,6 C 11,6 km/h (2 Bft)
24.02.2009 17:00 3,5 C 95 % 1024,5 hPa 0,0 l/m 11,7 km/h (2 Bft) W 0,00 h 0 W/m 2,8 C -0,8 C 11,7 km/h (2 Bft)
24.02.2009 18:00 3,4 C 94 % 1024,5 hPa 0,3 l/m 13,6 km/h (3 Bft) W-SW 0,00 h 0 W/m 2,5 C -2,0 C 13,6 km/h (3 Bft)
24.02.2009 19:00 3,5 C 92 % 1024,5 hPa 0,0 l/m 17,3 km/h (3 Bft) W 0,00 h 0 W/m 2,3 C -3,8 C 17,3 km/h (3 Bft)
24.02.2009 20:00 3,6 C 91 % 1024,5 hPa 0,0 l/m 18,2 km/h (3 Bft) W 0,00 h 0 W/m 2,2 C -4,1 C 18,2 km/h (3 Bft)
24.02.2009 21:00 3,7 C 91 % 1024,5 hPa 0,0 l/m 21,3 km/h (4 Bft) W 0,00 h 0 W/m 2,3 C -5,4 C 21,3 km/h (4 Bft)
24.02.2009 22:00 3,8 C 92 % 1024,5 hPa 0,0 l/m 22,0 km/h (4 Bft) W 0,00 h 0 W/m 2,6 C -5,4 C 22,0 km/h (4 Bft)
24.02.2009 23:00 3,6 C 94 % 1024,5 hPa 0,0 l/m 20,5 km/h (4 Bft) W 0,00 h 0 W/m 2,7 C -5,2 C 20,5 km/h (4 Bft)
25.02.2009 00:00 3,5 C 96 % 1024,5 hPa 0,0 l/m 19,8 km/h (4 Bft) W 0,00 h 0 W/m 2,9 C -5,0 C 19,8 km/h (4 Bft)
25.02.2009 01:00 3,5 C 97 % 1024,5 hPa 0,0 l/m 20,4 km/h (4 Bft) W 0,00 h 0 W/m 3,0 C -5,2 C 20,4 km/h (4 Bft)
25.02.2009 02:00 3,5 C 98 % 1024,5 hPa 0,0 l/m 19,5 km/h (3 Bft) W 0,00 h 0 W/m 3,2 C -4,8 C 19,5 km/h (3 Bft)
25.02.2009 03:00 3,8 C 98 % 1023,8 hPa 0,0 l/m 21,4 km/h (4 Bft) W 0,00 h 0 W/m 3,5 C -5,2 C 21,4 km/h (4 Bft)
25.02.2009 04:00 3,9 C 99 % 1023,5 hPa 0,0 l/m 21,8 km/h (4 Bft) W 0,00 h 0 W/m 3,7 C -5,2 C 21,8 km/h (4 Bft)
25.02.2009 05:00 3,8 C 99 % 1023,5 hPa 0,0 l/m 22,4 km/h (4 Bft) W 0,00 h 0 W/m 3,6 C -5,6 C 22,4 km/h (4 Bft)
25.02.2009 06:00 3,7 C 99 % 1023,5 hPa 0,0 l/m 22,8 km/h (4 Bft) W 0,00 h 0 W/m 3,6 C -5,9 C 22,8 km/h (4 Bft)
25.02.2009 07:00 3,6 C 99 % 1023,5 hPa 0,0 l/m 26,2 km/h (4 Bft) W-SW 0,00 h 0 W/m 3,4 C -7,2 C 26,2 km/h (4 Bft)
25.02.2009 08:00 3,5 C 99 % 1023,0 hPa 0,0 l/m 27,6 km/h (5 Bft) W-SW 0,00 h 0 W/m 3,3 C -7,8 C 27,6 km/h (5 Bft)
25.02.2009 09:00 3,6 C 99 % 1022,5 hPa 0,3 l/m 28,2 km/h (5 Bft) W-SW 0,00 h 0 W/m 3,4 C -7,8 C 28,2 km/h (5 Bft)
25.02.2009 10:00 3,9 C 97 % 1022,5 hPa 0,0 l/m 31,3 km/h (5 Bft) W-SW 0,00 h 0 W/m 3,5 C -8,2 C 31,3 km/h (5 Bft)
25.02.2009 11:00 3,9 C 96 % 1022,5 hPa 0,9 l/m 26,4 km/h (4 Bft) W-SW 0,00 h 0 W/m 3,3 C -6,8 C 26,4 km/h (4 Bft)
25.02.2009 12:00 3,9 C 97 % 1022,5 hPa 0,0 l/m 28,7 km/h (5 Bft) W-SW 0,00 h 0 W/m 3,5 C -7,5 C 28,7 km/h (5 Bft)
25.02.2009 13:00 4,2 C 97 % 1021,5 hPa 0,0 l/m 32,0 km/h (5 Bft) W-SW 0,00 h 0 W/m 3,8 C -8,0 C 32,0 km/h (5 Bft)
25.02.2009 14:00 4,4 C 98 % 1021,1 hPa 0,3 l/m 32,5 km/h (5 Bft) W 0,00 h 0 W/m 4,1 C -7,8 C 32,5 km/h (5 Bft)
25.02.2009 15:00 4,7 C 98 % 1020,5 hPa 0,0 l/m 33,7 km/h (5 Bft) W 0,00 h 0 W/m 4,4 C -7,7 C 33,7 km/h (5 Bft)
25.02.2009 16:00 4,8 C 98 % 1019,7 hPa 0,0 l/m 33,9 km/h (5 Bft) W-SW 0,00 h 0 W/m 4,5 C -7,6 C 33,9 km/h (5 Bft)
25.02.2009 17:00 4,8 C 98 % 1019,1 hPa 0,0 l/m 32,6 km/h (5 Bft) W 0,00 h 0 W/m 4,5 C -7,2 C 32,6 km/h (5 Bft)
25.02.2009 18:00 5,1 C 98 % 1018,5 hPa 0,0 l/m 30,2 km/h (5 Bft) W 0,00 h 0 W/m 4,8 C -6,3 C 30,2 km/h (5 Bft)
25.02.2009 19:00 5,3 C 98 % 1018,5 hPa 0,0 l/m 29,9 km/h (5 Bft) W 0,00 h 0 W/m 5,0 C -5,9 C 29,9 km/h (5 Bft)
25.02.2009 20:00 5,1 C 98 % 1018,5 hPa 0,3 l/m 25,4 km/h (4 Bft) W 0,00 h 0 W/m 4,9 C -4,8 C 25,4 km/h (4 Bft)
25.02.2009 21:00 4,9 C 98 % 1017,7 hPa 0,3 l/m 27,0 km/h (4 Bft) W 0,00 h 0 W/m 4,6 C -5,7 C 27,0 km/h (4 Bft)
25.02.2009 22:00 4,8 C 98 % 1017,4 hPa 0,3 l/m 23,9 km/h (4 Bft) W 0,00 h 0 W/m 4,5 C -4,8 C 23,9 km/h (4 Bft)
25.02.2009 23:00 4,7 C 99 % 1016,5 hPa 0,0 l/m 24,9 km/h (4 Bft) W 0,00 h 0 W/m 4,5 C -5,3 C 24,9 km/h (4 Bft)
26.02.2009 00:00 4,7 C 99 % 1015,8 hPa 0,0 l/m 24,3 km/h (4 Bft) W 0,00 h 0 W/m 4,6 C -5,0 C 24,3 km/h (4 Bft)
26.02.2009 01:00 4,6 C 99 % 1015,5 hPa 0,0 l/m 23,3 km/h (4 Bft) W 0,00 h 0 W/m 4,4 C -4,9 C 23,3 km/h (4 Bft)
26.02.2009 02:00 4,4 C 99 % 1014,9 hPa 0,0 l/m 23,8 km/h (4 Bft) W 0,00 h 0 W/m 4,3 C -5,3 C 23,8 km/h (4 Bft)
26.02.2009 03:00 4,3 C 98 % 1014,1 hPa 0,0 l/m 22,8 km/h (4 Bft) W 0,00 h 0 W/m 4,0 C -5,1 C 22,8 km/h (4 Bft)
26.02.2009 04:00 4,3 C 98 % 1013,3 hPa 2,4 l/m 25,7 km/h (4 Bft) W 0,00 h 0 W/m 4,0 C -6,0 C 25,7 km/h (4 Bft)
26.02.2009 05:00 4,3 C 96 % 1012,5 hPa 0,0 l/m 26,9 km/h (4 Bft) W 0,00 h 0 W/m 3,8 C -6,5 C 26,9 km/h (4 Bft)
26.02.2009 06:00 4,0 C 96 % 1012,0 hPa 0,0 l/m 27,1 km/h (5 Bft) W 0,00 h 0 W/m 3,3 C -7,0 C 27,1 km/h (5 Bft)
26.02.2009 07:00 3,7 C 95 % 1011,5 hPa 0,0 l/m 27,0 km/h (5 Bft) W 0,00 h 0 W/m 3,1 C -7,2 C 27,0 km/h (5 Bft)
26.02.2009 08:00 3,9 C 96 % 1011,5 hPa 0,0 l/m 26,7 km/h (4 Bft) W 0,00 h 0 W/m 3,3 C -7,0 C 26,7 km/h (4 Bft)
26.02.2009 09:00 4,4 C 95 % 1011,5 hPa 0,0 l/m 31,0 km/h (5 Bft) W-NW 0,00 h 0 W/m 3,6 C -7,3 C 31,0 km/h (5 Bft)
26.02.2009 10:00 5,0 C 94 % 1010,7 hPa 0,0 l/m 34,6 km/h (5 Bft) W-NW 0,00 h 0 W/m 4,1 C -7,4 C 34,6 km/h (5 Bft)
26.02.2009 11:00 5,5 C 92 % 1010,5 hPa 0,0 l/m 32,7 km/h (5 Bft) W-NW 0,00 h 0 W/m 4,3 C -6,3 C 32,7 km/h (5 Bft)
26.02.2009 12:00 5,9 C 90 % 1010,5 hPa 0,0 l/m 35,6 km/h (5 Bft) W-NW 0,00 h 0 W/m 4,4 C -6,4 C 35,6 km/h (5 Bft)
26.02.2009 13:00 6,3 C 89 % 1010,4 hPa 0,0 l/m 35,0 km/h (5 Bft) W-NW 0,00 h 0 W/m 4,6 C -5,6 C 35,0 km/h (5 Bft)
26.02.2009 14:00 5,9 C 89 % 1009,5 hPa 0,0 l/m 34,9 km/h (5 Bft) W-NW 0,00 h 0 W/m 4,3 C -6,1 C 34,9 km/h (5 Bft)
26.02.2009 15:00 5,4 C 92 % 1009,5 hPa 0,0 l/m 33,3 km/h (5 Bft) W-NW 0,00 h 0 W/m 4,1 C -6,5 C 33,3 km/h (5 Bft)
26.02.2009 16:00 4,6 C 96 % 1008,7 hPa 0,0 l/m 37,2 km/h (5 Bft) W-NW 0,00 h 0 W/m 4,0 C -8,5 C 37,2 km/h (5 Bft)
26.02.2009 17:00 4,5 C 97 % 1008,5 hPa 0,0 l/m 35,0 km/h (5 Bft) W-NW 0,00 h 0 W/m 4,1 C -8,2 C 35,0 km/h (5 Bft)
26.02.2009 18:00 4,7 C 97 % 1008,5 hPa 0,0 l/m 35,5 km/h (5 Bft) W-NW 0,00 h 0 W/m 4,2 C -8,1 C 35,5 km/h (5 Bft)
26.02.2009 19:00 4,7 C 97 % 1008,5 hPa 0,0 l/m 33,3 km/h (5 Bft) NW 0,00 h 0 W/m 4,3 C -7,6 C 33,3 km/h (5 Bft)
26.02.2009 20:00 4,6 C 98 % 1008,5 hPa 0,0 l/m 30,1 km/h (5 Bft) NW 0,00 h 0 W/m 4,3 C -6,9 C 30,1 km/h (5 Bft)
26.02.2009 21:00 4,2 C 98 % 1008,5 hPa 0,0 l/m 29,1 km/h (5 Bft) NW 0,00 h 0 W/m 4,0 C -7,1 C 29,1 km/h (5 Bft)
26.02.2009 22:00 4,0 C 98 % 1008,5 hPa 0,0 l/m 27,1 km/h (5 Bft) NW 0,00 h 0 W/m 3,7 C -6,9 C 27,1 km/h (5 Bft)
26.02.2009 23:00 4,0 C 98 % 1008,6 hPa 0,0 l/m 27,8 km/h (5 Bft) NW 0,00 h 0 W/m 3,8 C -7,0 C 27,8 km/h (5 Bft)
27.02.2009 00:00 4,2 C 98 % 1009,5 hPa 0,0 l/m 25,1 km/h (4 Bft) NW 0,00 h 0 W/m 3,9 C -5,9 C 25,1 km/h (4 Bft)
27.02.2009 01:00 4,3 C 97 % 1009,5 hPa 0,0 l/m 26,5 km/h (4 Bft) NW 0,00 h 0 W/m 3,9 C -6,3 C 26,5 km/h (4 Bft)
27.02.2009 02:00 4,3 C 97 % 1009,5 hPa 0,0 l/m 24,0 km/h (4 Bft) NW 0,00 h 0 W/m 3,8 C -5,5 C 24,0 km/h (4 Bft)
27.02.2009 03:00 3,8 C 97 % 1009,5 hPa 0,0 l/m 23,6 km/h (4 Bft) W-NW 0,00 h 0 W/m 3,3 C -6,0 C 23,6 km/h (4 Bft)
27.02.2009 04:00 3,9 C 97 % 1010,3 hPa 0,0 l/m 25,7 km/h (4 Bft) NW 0,00 h 0 W/m 3,5 C -6,6 C 25,7 km/h (4 Bft)
27.02.2009 05:00 3,9 C 97 % 1010,5 hPa 0,0 l/m 23,1 km/h (4 Bft) NW 0,00 h 0 W/m 3,5 C -5,7 C 23,1 km/h (4 Bft)
27.02.2009 06:00 3,5 C 97 % 1010,5 hPa 0,0 l/m 21,1 km/h (4 Bft) W-NW 0,00 h 0 W/m 3,1 C -5,5 C 21,1 km/h (4 Bft)
27.02.2009 07:00 3,3 C 98 % 1011,3 hPa 0,0 l/m 21,6 km/h (4 Bft) NW 0,00 h 0 W/m 3,0 C -5,9 C 21,6 km/h (4 Bft)
27.02.2009 08:00 3,5 C 98 % 1011,5 hPa 0,0 l/m 17,8 km/h (3 Bft) W-NW 0,00 h 0 W/m 3,2 C -4,1 C 17,8 km/h (3 Bft)
27.02.2009 09:00 4,2 C 98 % 1011,9 hPa 0,6 l/m 18,6 km/h (3 Bft) NW 0,00 h 0 W/m 3,9 C -3,5 C 18,6 km/h (3 Bft)
27.02.2009 10:00 5,1 C 97 % 1012,5 hPa 0,0 l/m 19,8 km/h (3 Bft) W-NW 0,00 h 0 W/m 4,7 C -2,9 C 19,8 km/h (3 Bft)
27.02.2009 11:00 5,8 C 95 % 1012,3 hPa 0,0 l/m 19,7 km/h (3 Bft) W-NW 0,00 h 0 W/m 5,0 C -1,9 C 19,7 km/h (3 Bft)
27.02.2009 12:00 5,9 C 94 % 1012,3 hPa 0,0 l/m 21,6 km/h (4 Bft) W-NW 0,00 h 0 W/m 5,0 C -2,6 C 21,6 km/h (4 Bft)
27.02.2009 13:00 5,8 C 94 % 1012,5 hPa 0,0 l/m 21,3 km/h (4 Bft) W-NW 0,00 h 0 W/m 4,9 C -2,6 C 21,3 km/h (4 Bft)
27.02.2009 14:00 5,4 C 94 % 1012,2 hPa 0,0 l/m 16,7 km/h (3 Bft) W-NW 0,00 h 0 W/m 4,5 C -1,1 C 16,7 km/h (3 Bft)
27.02.2009 15:00 5,3 C 95 % 1012,5 hPa 0,0 l/m 15,3 km/h (3 Bft) W-NW 0,00 h 0 W/m 4,5 C -0,6 C 15,3 km/h (3 Bft)
27.02.2009 16:00 4,9 C 95 % 1012,5 hPa 0,0 l/m 14,2 km/h (3 Bft) W-NW 0,00 h 0 W/m 4,2 C -0,6 C 14,2 km/h (3 Bft)
27.02.2009 17:00 4,3 C 96 % 1012,5 hPa 0,0 l/m 12,4 km/h (2 Bft) W-NW 0,00 h 0 W/m 3,7 C -0,2 C 12,4 km/h (2 Bft)
27.02.2009 18:00 3,9 C 96 % 1012,5 hPa 0,0 l/m 13,7 km/h (3 Bft) W-NW 0,00 h 0 W/m 3,3 C -1,5 C 13,7 km/h (3 Bft)
27.02.2009 19:00 3,4 C 97 % 1013,2 hPa 0,0 l/m 8,1 km/h (2 Bft) W-NW 0,00 h 0 W/m 2,9 C 1,4 C 8,1 km/h (2 Bft)
27.02.2009 20:00 3,2 C 97 % 1013,5 hPa 0,0 l/m 6,0 km/h (2 Bft) W 0,00 h 0 W/m 2,8 C 2,9 C 6,0 km/h (2 Bft)
27.02.2009 21:00 3,3 C 97 % 1013,5 hPa 0,0 l/m 7,7 km/h (2 Bft) W-NW 0,00 h 0 W/m 2,8 C 1,9 C 7,7 km/h (2 Bft)
27.02.2009 22:00 3,5 C 97 % 1013,5 hPa 0,0 l/m 4,5 km/h (1 Bft) W-SW 0,00 h 0 W/m 3,1 C 3,5 C 4,5 km/h (1 Bft)
27.02.2009 23:00 3,5 C 98 % 1013,5 hPa 0,0 l/m 5,9 km/h (2 Bft) W-SW 0,00 h 0 W/m 3,2 C 3,3 C 5,9 km/h (2 Bft)
28.02.2009 00:00 3,6 C 98 % 1013,5 hPa 0,0 l/m 3,3 km/h (1 Bft) W 0,00 h 0 W/m 3,3 C 3,5 C 3,3 km/h (1 Bft)
28.02.2009 01:00 3,7 C 98 % 1013,5 hPa 0,0 l/m 5,0 km/h (1 Bft) W-SW 0,00 h 0 W/m 3,4 C 3,4 C 5,0 km/h (1 Bft)
28.02.2009 02:00 3,8 C 98 % 1013,5 hPa 0,0 l/m 1,5 km/h (1 Bft) W-NW 0,00 h 0 W/m 3,5 C 3,8 C 1,5 km/h (1 Bft)
28.02.2009 03:00 3,9 C 98 % 1012,9 hPa 0,0 l/m 0,0 km/h (0 Bft) N 0,00 h 0 W/m 3,6 C 3,9 C 0,0 km/h (0 Bft)
28.02.2009 04:00 4,0 C 98 % 1012,5 hPa 0,0 l/m 0,7 km/h (0 Bft) W-SW 0,00 h 0 W/m 3,7 C 4,0 C 0,7 km/h (0 Bft)
28.02.2009 05:00 4,1 C 98 % 1012,5 hPa 0,0 l/m 4,6 km/h (1 Bft) SO 0,00 h 0 W/m 3,8 C 4,0 C 4,6 km/h (1 Bft)
28.02.2009 06:00 4,3 C 98 % 1012,5 hPa 0,0 l/m 4,2 km/h (1 Bft) S 0,00 h 0 W/m 4,0 C 4,3 C 4,2 km/h (1 Bft)
28.02.2009 07:00 4,5 C 98 % 1012,5 hPa 0,0 l/m 6,1 km/h (2 Bft) S-SO 0,00 h 0 W/m 4,2 C 4,2 C 6,1 km/h (2 Bft)
28.02.2009 08:00 4,6 C 98 % 1012,5 hPa 0,0 l/m 8,6 km/h (2 Bft) S-SO 0,00 h 0 W/m 4,3 C 2,7 C 8,6 km/h (2 Bft)
28.02.2009 09:00 5,4 C 99 % 1011,6 hPa 0,0 l/m 8,4 km/h (2 Bft) S-SW 0,00 h 0 W/m 5,2 C 3,7 C 8,4 km/h (2 Bft)
28.02.2009 10:00 6,2 C 99 % 1011,9 hPa 0,0 l/m 10,5 km/h (2 Bft) W-SW 0,00 h 0 W/m 6,0 C 3,4 C 10,5 km/h (2 Bft)
28.02.2009 11:00 6,2 C 99 % 1011,7 hPa 0,0 l/m 18,8 km/h (3 Bft) W 0,00 h 0 W/m 6,0 C -1,1 C 18,8 km/h (3 Bft)
28.02.2009 12:00 5,6 C 99 % 1012,5 hPa 0,0 l/m 21,8 km/h (4 Bft) W-NW 0,00 h 0 W/m 5,5 C -2,9 C 21,8 km/h (4 Bft)
28.02.2009 13:00 5,9 C 99 % 1011,5 hPa 0,6 l/m 20,2 km/h (4 Bft) W-NW 0,00 h 0 W/m 5,8 C -1,9 C 20,2 km/h (4 Bft)
28.02.2009 14:00 6,7 C 99 % 1011,5 hPa 0,0 l/m 18,3 km/h (3 Bft) W-NW 0,00 h 0 W/m 6,5 C -0,3 C 18,3 km/h (3 Bft)
28.02.2009 15:00 6,3 C 98 % 1011,5 hPa 0,0 l/m 15,8 km/h (3 Bft) W-NW 0,00 h 0 W/m 6,0 C 0,4 C 15,8 km/h (3 Bft)
28.02.2009 16:00 5,7 C 98 % 1011,5 hPa 0,0 l/m 11,4 km/h (2 Bft) W-NW 0,00 h 0 W/m 5,4 C 2,0 C 11,4 km/h (2 Bft)
28.02.2009 17:00 5,3 C 98 % 1011,5 hPa 0,0 l/m 10,8 km/h (2 Bft) W-NW 0,00 h 0 W/m 5,0 C 2,0 C 10,8 km/h (2 Bft)
28.02.2009 18:00 5,1 C 97 % 1011,5 hPa 0,0 l/m 11,2 km/h (2 Bft) NW 0,00 h 0 W/m 4,7 C 1,5 C 11,2 km/h (2 Bft)
28.02.2009 19:00 5,2 C 95 % 1011,5 hPa 0,0 l/m 7,7 km/h (2 Bft) NW 0,00 h 0 W/m 4,5 C 3,6 C 7,7 km/h (2 Bft)
28.02.2009 20:00 4,9 C 95 % 1011,5 hPa 0,0 l/m 1,1 km/h (1 Bft) NW 0,00 h 0 W/m 4,1 C 4,9 C 1,1 km/h (1 Bft)
28.02.2009 21:00 4,7 C 95 % 1011,5 hPa 0,0 l/m 4,5 km/h (1 Bft) N 0,00 h 0 W/m 4,0 C 4,5 C 4,5 km/h (1 Bft)
28.02.2009 22:00 4,7 C 96 % 1011,5 hPa 0,0 l/m 5,4 km/h (2 Bft) W-SW 0,00 h 0 W/m 4,1 C 4,3 C 5,4 km/h (2 Bft)
28.02.2009 23:00 4,6 C 96 % 1011,5 hPa 0,0 l/m 4,5 km/h (1 Bft) W-SW 0,00 h 0 W/m 4,0 C 4,6 C 4,5 km/h (1 Bft)
01.03.2009 00:00 4,6 C 96 % 1011,5 hPa 0,0 l/m 0,3 km/h (0 Bft) W-SW 0,00 h 0 W/m 4,1 C 4,6 C 0,3 km/h (0 Bft)
01.03.2009 01:00 4,5 C 96 % 1011,1 hPa 0,0 l/m 0,0 km/h (0 Bft) N 0,00 h 0 W/m 3,9 C 4,5 C 0,0 km/h (0 Bft)
01.03.2009 02:00 4,4 C 96 % 1010,5 hPa 0,0 l/m 0,0 km/h (0 Bft) N 0,00 h 0 W/m 3,8 C 4,4 C 0,0 km/h (0 Bft)
01.03.2009 03:00 4,4 C 96 % 1010,5 hPa 0,0 l/m 0,0 km/h (0 Bft) N 0,00 h 0 W/m 3,8 C 4,4 C 0,0 km/h (0 Bft)
01.03.2009 04:00 4,4 C 96 % 1010,5 hPa 0,0 l/m 0,0 km/h (0 Bft) N 0,00 h 0 W/m 3,8 C 4,4 C 0,0 km/h (0 Bft)
01.03.2009 05:00 4,4 C 97 % 1010,5 hPa 0,0 l/m 0,4 km/h (0 Bft) W-SW 0,00 h 0 W/m 3,9 C 4,4 C 0,4 km/h (0 Bft)
01.03.2009 06:00 4,3 C 97 % 1010,0 hPa 0,0 l/m 0,0 km/h (0 Bft) N 0,00 h 0 W/m 3,9 C 4,3 C 0,0 km/h (0 Bft)
01.03.2009 07:00 4,3 C 97 % 1009,5 hPa 0,0 l/m 0,5 km/h (0 Bft) W-SW 0,00 h 0 W/m 3,9 C 4,3 C 0,5 km/h (0 Bft)
01.03.2009 08:00 4,7 C 97 % 1009,5 hPa 0,0 l/m 2,6 km/h (1 Bft) W-SW 0,00 h 0 W/m 4,2 C 4,7 C 2,6 km/h (1 Bft)
01.03.2009 09:00 5,0 C 97 % 1009,5 hPa 0,0 l/m 4,1 km/h (1 Bft) W-SW 0,00 h 0 W/m 4,6 C 4,9 C 4,1 km/h (1 Bft)
01.03.2009 10:00 6,0 C 97 % 1009,5 hPa 0,0 l/m 5,1 km/h (1 Bft) SO 0,00 h 0 W/m 5,5 C 5,3 C 5,1 km/h (1 Bft)
01.03.2009 11:00 8,1 C 97 % 1009,5 hPa 0,0 l/m 12,3 km/h (2 Bft) S 0,00 h 0 W/m 7,6 C 4,2 C 12,3 km/h (2 Bft)
01.03.2009 12:00 9,2 C 92 % 1008,9 hPa 0,0 l/m 12,8 km/h (3 Bft) S-SO 0,00 h 0 W/m 8,0 C 5,3 C 12,8 km/h (3 Bft)
01.03.2009 13:00 9,6 C 86 % 1008,5 hPa 0,0 l/m 12,4 km/h (2 Bft) S 0,00 h 0 W/m 7,3 C 5,9 C 12,4 km/h (2 Bft)
01.03.2009 14:00 9,9 C 85 % 1008,3 hPa 0,0 l/m 11,3 km/h (2 Bft) S 0,00 h 0 W/m 7,4 C 6,8 C 11,3 km/h (2 Bft)
01.03.2009 15:00 9,9 C 84 % 1007,5 hPa 0,0 l/m 8,6 km/h (2 Bft) S-SO 0,00 h 0 W/m 7,3 C 8,3 C 8,6 km/h (2 Bft)
01.03.2009 16:00 8,8 C 86 % 1007,5 hPa 0,0 l/m 4,6 km/h (1 Bft) O 0,00 h 0 W/m 6,6 C 8,2 C 4,6 km/h (1 Bft)
01.03.2009 17:00 8,7 C 89 % 1007,5 hPa 0,0 l/m 4,2 km/h (1 Bft) SO 0,00 h 0 W/m 7,0 C 8,0 C 4,2 km/h (1 Bft)
01.03.2009 18:00 8,3 C 90 % 1007,5 hPa 0,0 l/m 5,4 km/h (2 Bft) SO 0,00 h 0 W/m 6,8 C 8,0 C 5,4 km/h (2 Bft)
01.03.2009 19:00 8,0 C 91 % 1007,5 hPa 0,0 l/m 4,5 km/h (1 Bft) O-SO 0,00 h 0 W/m 6,6 C 7,7 C 4,5 km/h (1 Bft)
01.03.2009 20:00 7,9 C 93 % 1006,8 hPa 0,0 l/m 8,1 km/h (2 Bft) SO 0,00 h 0 W/m 6,8 C 6,4 C 8,1 km/h (2 Bft)
01.03.2009 21:00 8,2 C 94 % 1006,5 hPa 0,0 l/m 13,3 km/h (3 Bft) S-SO 0,00 h 0 W/m 7,3 C 3,8 C 13,3 km/h (3 Bft)
01.03.2009 22:00 8,2 C 94 % 1006,5 hPa 0,0 l/m 11,4 km/h (2 Bft) S-SO 0,00 h 0 W/m 7,3 C 4,9 C 11,4 km/h (2 Bft)
01.03.2009 23:00 8,1 C 95 % 1006,1 hPa 0,3 l/m 7,2 km/h (2 Bft) S-SO 0,00 h 0 W/m 7,3 C 7,2 C 7,2 km/h (2 Bft)
Min-Datum _ 24.02.09 01.03.09 01.03.09 - 23.02.09 - - - 24.02.09 26.02.09 23.02.09
_ Min-Zeit 07:21 14:19 23:34 - 23:46 - - - 07:16 16:28 23:46
Minimum _ -1,9 C 84 % 1005,5 hPa - 0,0 km/h (0 Bft) - - - -2,4 C -9,8 C 0,0 km/h (0 Bft)
Max-Datum _ 01.03.09 25.02.09 24.02.09 26.02.09 26.02.09 - 23.02.09 23.02.09 01.03.09 01.03.09 26.02.09
_ Max-Zeit 14:09 04:21 11:21 04:53 16:28 - 00:01 00:01 12:54 15:29 16:28
Maximum _ 10,1 C 99 % 1024,5 hPa 2,4 l/m 45,3 km/h
W-NW (6 Bft)
- 0,00 h 0 W/m 8,3 C 10,0 C 45,3 km/h
W-NW (6 Bft)
Durchschnitt _ 4,4 C 96 % 1014,3 hPa #7,8 l/m 17,3 km/h (3 Bft) W #0 min. 0 W/m 3,8 C -2,0 C 17,3 km/h (3 Bft)
copyright by Holger Just